createdAt,value
2023-01-08T00:01:20.925Z,63.82
2023-01-08T00:03:49.494Z,63.38
2023-01-08T00:06:19.725Z,63.77
2023-01-08T00:08:48.194Z,63.85
2023-01-08T00:11:16.590Z,64.09
2023-01-08T00:13:44.914Z,65.50
2023-01-08T00:16:18.046Z,65.83
2023-01-08T00:18:47.173Z,68.38
2023-01-08T00:21:15.648Z,69.05
2023-01-08T00:23:43.976Z,71.19
2023-01-08T00:26:12.760Z,71.03
2023-01-08T00:28:41.697Z,69.69
2023-01-08T00:31:12.387Z,69.05
2023-01-08T00:33:42.892Z,69.05
2023-01-08T00:36:12.904Z,68.99
2023-01-08T00:38:41.740Z,68.28
2023-01-08T00:41:10.586Z,68.01
2023-01-08T00:43:38.963Z,67.63
2023-01-08T00:46:08.111Z,69.16
2023-01-08T00:48:38.978Z,69.17
2023-01-08T00:51:10.583Z,68.98
2023-01-08T00:53:39.224Z,67.89
2023-01-08T00:56:09.999Z,67.13
2023-01-08T00:58:39.204Z,66.41
2023-01-08T01:01:12.981Z,66.75
2023-01-08T01:03:41.855Z,67.12
2023-01-08T01:06:12.716Z,67.20
2023-01-08T01:08:41.291Z,66.77
2023-01-08T01:11:10.134Z,66.52
2023-01-08T01:13:38.812Z,66.75
2023-01-08T01:16:07.555Z,66.33
2023-01-08T01:18:35.986Z,66.45
2023-01-08T01:21:04.282Z,65.99
2023-01-08T01:23:33.999Z,66.51
2023-01-08T01:26:02.368Z,66.77
2023-01-08T01:28:30.561Z,66.21
2023-01-08T01:30:59.061Z,66.06
2023-01-08T01:33:27.310Z,66.79
2023-01-08T01:36:02.691Z,67.93
2023-01-08T01:38:31.750Z,68.14
2023-01-08T01:41:01.623Z,68.34
2023-01-08T01:43:38.118Z,68.50
2023-01-08T01:46:17.322Z,68.59
2023-01-08T01:48:46.673Z,67.57
2023-01-08T01:51:15.680Z,68.00
2023-01-08T01:53:44.031Z,68.36
2023-01-08T01:56:13.744Z,68.09
2023-01-08T01:58:41.953Z,67.37
2023-01-08T02:01:11.404Z,67.23
2023-01-08T02:03:40.894Z,66.93
2023-01-08T02:06:21.728Z,68.18
2023-01-08T02:09:00.525Z,68.70
2023-01-08T02:11:36.769Z,70.64
2023-01-08T02:14:13.329Z,72.76
2023-01-08T02:16:47.528Z,74.92
2023-01-08T02:19:31.902Z,74.79
2023-01-08T02:22:07.174Z,72.36
2023-01-08T02:24:48.012Z,70.67
2023-01-08T02:27:19.249Z,70.34
2023-01-08T02:29:49.240Z,70.35
2023-01-08T02:32:18.161Z,69.44
2023-01-08T02:34:46.703Z,69.30
2023-01-08T02:37:15.492Z,69.40
2023-01-08T02:39:53.259Z,69.20
2023-01-08T02:42:28.736Z,68.65
2023-01-08T02:45:01.748Z,69.33
2023-01-08T02:47:33.957Z,68.62
2023-01-08T02:50:09.244Z,67.81
2023-01-08T02:52:43.829Z,68.45
2023-01-08T02:55:13.767Z,68.27
2023-01-08T02:57:44.013Z,68.40
2023-01-08T03:00:13.854Z,69.00
2023-01-08T03:02:44.278Z,69.36
2023-01-08T03:05:22.136Z,69.17
2023-01-08T03:07:50.934Z,68.45
2023-01-08T03:10:22.831Z,68.47
2023-01-08T03:12:56.993Z,68.46
2023-01-08T03:15:29.890Z,68.29
2023-01-08T03:18:03.255Z,68.88
2023-01-08T03:20:34.485Z,68.93
2023-01-08T03:23:07.431Z,68.41
2023-01-08T03:25:39.420Z,68.65
2023-01-08T03:28:13.738Z,68.20
2023-01-08T03:30:44.224Z,68.70
2023-01-08T03:33:14.039Z,68.56
2023-01-08T03:35:44.800Z,68.49
2023-01-08T03:38:16.565Z,68.56
2023-01-08T03:40:48.750Z,68.61
2023-01-08T03:43:18.578Z,68.58
2023-01-08T03:45:51.939Z,68.39
2023-01-08T03:48:22.297Z,68.63
2023-01-08T03:50:50.770Z,68.93
2023-01-08T03:53:19.210Z,68.69
2023-01-08T03:55:47.556Z,68.33
2023-01-08T03:58:17.216Z,67.62
2023-01-08T04:00:45.564Z,69.05
2023-01-08T04:03:13.829Z,69.22
2023-01-08T04:05:42.062Z,69.27
2023-01-08T04:08:10.360Z,68.97
2023-01-08T04:10:38.658Z,68.80
2023-01-08T04:13:06.933Z,68.70
2023-01-08T04:15:36.762Z,68.42
2023-01-08T04:18:05.208Z,69.60
2023-01-08T04:20:33.457Z,70.45
2023-01-08T04:23:01.737Z,69.97
2023-01-08T04:25:29.966Z,69.31
2023-01-08T04:27:58.215Z,68.78
2023-01-08T04:30:26.463Z,69.00
2023-01-08T04:32:56.110Z,69.14
2023-01-08T04:35:24.811Z,68.86
2023-01-08T04:37:53.031Z,68.91
2023-01-08T04:40:21.405Z,68.53
2023-01-08T04:42:49.679Z,68.18
2023-01-08T04:45:18.039Z,68.22
2023-01-08T04:47:46.361Z,68.75
2023-01-08T04:50:15.972Z,68.42
2023-01-08T04:52:44.257Z,68.46
2023-01-08T04:55:12.544Z,68.27
2023-01-08T04:57:40.832Z,68.14
2023-01-08T05:00:09.880Z,68.84
2023-01-08T05:02:38.475Z,68.56
2023-01-08T05:05:07.859Z,68.92
2023-01-08T05:07:37.502Z,68.85
2023-01-08T05:10:06.604Z,68.53
2023-01-08T05:12:34.822Z,69.92
2023-01-08T05:15:03.187Z,70.01
2023-01-08T05:17:31.412Z,70.07
2023-01-08T05:19:59.700Z,70.46
2023-01-08T05:22:27.982Z,71.24
2023-01-08T05:24:57.625Z,71.63
2023-01-08T05:27:25.871Z,71.04
2023-01-08T05:29:54.193Z,71.87
2023-01-08T05:32:22.520Z,71.36
2023-01-08T05:34:50.821Z,71.01
2023-01-08T05:37:19.085Z,71.54
2023-01-08T05:39:47.293Z,72.71
2023-01-08T05:42:17.094Z,72.30
2023-01-08T05:44:45.491Z,71.55
2023-01-08T05:47:13.751Z,70.07
2023-01-08T05:49:42.193Z,69.25
2023-01-08T05:52:10.507Z,68.94
2023-01-08T05:54:38.738Z,70.05
2023-01-08T05:57:07.063Z,69.43
2023-01-08T05:59:36.728Z,69.15
2023-01-08T06:02:05.002Z,69.16
2023-01-08T06:04:33.411Z,69.07
2023-01-08T06:07:02.029Z,69.00
2023-01-08T06:09:30.304Z,70.63
2023-01-08T06:11:58.850Z,72.23
2023-01-08T06:14:27.183Z,73.39
2023-01-08T06:16:56.864Z,74.15
2023-01-08T06:19:25.379Z,71.70
2023-01-08T06:21:53.707Z,70.78
2023-01-08T06:24:22.012Z,71.63
2023-01-08T06:26:50.367Z,72.46
2023-01-08T06:29:18.672Z,72.82
2023-01-08T06:31:47.010Z,72.39
2023-01-08T06:34:17.012Z,72.24
2023-01-08T06:36:45.292Z,72.89
2023-01-08T06:39:14.263Z,72.11
2023-01-08T06:41:43.967Z,71.63
2023-01-08T06:44:12.314Z,71.08
2023-01-08T06:46:40.636Z,69.38
2023-01-08T06:49:09.279Z,66.81
2023-01-08T06:51:38.954Z,66.31
2023-01-08T06:54:07.431Z,65.26
2023-01-08T06:56:48.797Z,63.73
2023-01-08T06:59:21.120Z,62.75
2023-01-08T07:01:50.047Z,61.84
2023-01-08T07:04:18.816Z,61.42
2023-01-08T07:06:49.479Z,60.45
2023-01-08T07:09:17.801Z,59.71
2023-01-08T07:11:46.117Z,59.75
2023-01-08T07:14:14.497Z,59.36
2023-01-08T07:16:42.818Z,58.55
2023-01-08T07:19:11.067Z,58.54
2023-01-08T07:21:39.449Z,58.52
2023-01-08T07:24:09.808Z,57.61
2023-01-08T07:26:39.765Z,56.40
2023-01-08T07:29:08.168Z,55.84
2023-01-08T07:31:36.589Z,55.06
2023-01-08T07:34:04.972Z,54.56
2023-01-08T07:36:33.219Z,54.01
2023-01-08T07:39:01.539Z,53.34
2023-01-08T07:41:31.147Z,52.48
2023-01-08T07:43:59.517Z,52.30
2023-01-08T07:46:27.993Z,51.61
2023-01-08T07:48:57.406Z,51.63
2023-01-08T07:51:25.670Z,51.09
2023-01-08T07:53:56.477Z,51.71
2023-01-08T07:56:25.253Z,49.68
2023-01-08T07:58:54.964Z,49.04
2023-01-08T08:01:24.311Z,49.00
2023-01-08T08:03:52.579Z,47.96
2023-01-08T08:06:20.869Z,47.71
2023-01-08T08:08:55.063Z,46.47
2023-01-08T08:11:23.344Z,46.56
2023-01-08T08:13:53.813Z,46.51
2023-01-08T08:16:24.590Z,46.67
2023-01-08T08:18:52.948Z,45.56
2023-01-08T08:21:21.240Z,45.03
2023-01-08T08:23:49.590Z,44.32
2023-01-08T08:26:17.828Z,44.08
2023-01-08T08:28:46.183Z,45.03
2023-01-08T08:31:14.671Z,43.58
2023-01-08T08:33:44.744Z,43.34
2023-01-08T08:36:12.969Z,42.03
2023-01-08T08:38:41.626Z,42.65
2023-01-08T08:41:09.978Z,43.25
2023-01-08T08:43:38.282Z,42.05
2023-01-08T08:46:06.888Z,41.98
2023-01-08T08:48:35.173Z,40.99
2023-01-08T08:51:05.604Z,40.25
2023-01-08T08:53:34.156Z,41.07
2023-01-08T08:56:02.602Z,39.90
2023-01-08T08:58:33.730Z,38.88
2023-01-08T09:01:03.695Z,39.73
2023-01-08T09:03:32.387Z,40.58
2023-01-08T09:06:00.668Z,41.42
2023-01-08T09:08:30.528Z,41.67
2023-01-08T09:10:58.813Z,42.47
2023-01-08T09:13:27.201Z,42.00
2023-01-08T09:15:55.541Z,41.01
2023-01-08T09:18:23.743Z,42.00
2023-01-08T09:20:52.132Z,41.46
2023-01-08T09:23:20.327Z,41.78
2023-01-08T09:25:50.049Z,40.07
2023-01-08T09:28:18.520Z,38.06
2023-01-08T09:30:46.862Z,36.62
2023-01-08T09:33:15.132Z,38.16
2023-01-08T09:35:45.411Z,36.23
2023-01-08T09:38:13.773Z,34.79
2023-01-08T09:40:53.248Z,34.39
2023-01-08T09:43:24.041Z,34.93
2023-01-08T09:45:56.647Z,37.23
2023-01-08T09:48:27.653Z,36.64
2023-01-08T09:50:56.305Z,35.97
2023-01-08T09:53:25.466Z,34.80
2023-01-08T09:56:09.152Z,35.70
2023-01-08T09:58:40.654Z,34.74
2023-01-08T10:01:13.000Z,34.61
2023-01-08T10:03:44.093Z,34.91
2023-01-08T10:06:14.419Z,36.17
2023-01-08T10:08:43.417Z,34.73
2023-01-08T10:11:15.846Z,34.88
2023-01-08T10:13:49.496Z,34.17
2023-01-08T10:16:26.755Z,32.56
2023-01-08T10:18:55.118Z,33.13
2023-01-08T10:21:30.696Z,32.21
2023-01-08T10:23:59.012Z,32.20
2023-01-08T10:26:31.730Z,31.32
2023-01-08T10:29:12.753Z,31.50
2023-01-08T10:31:48.157Z,30.78
2023-01-08T10:34:32.915Z,31.39
2023-01-08T10:37:01.838Z,31.05
2023-01-08T10:39:33.352Z,31.43
2023-01-08T10:42:08.540Z,30.51
2023-01-08T10:44:37.903Z,31.49
2023-01-08T10:47:07.404Z,31.72
2023-01-08T10:49:39.412Z,30.77
2023-01-08T10:52:07.806Z,30.79
2023-01-08T10:54:38.165Z,30.85
2023-01-08T10:57:23.369Z,30.96
2023-01-08T10:59:51.752Z,30.34
2023-01-08T11:02:30.301Z,30.78
2023-01-08T11:05:00.200Z,31.54
2023-01-08T11:07:29.500Z,30.89
2023-01-08T11:09:58.155Z,29.91
2023-01-08T11:12:35.911Z,29.58
2023-01-08T11:15:07.328Z,27.87
2023-01-08T11:17:36.120Z,28.58
2023-01-08T11:20:21.030Z,28.85
2023-01-08T11:22:49.339Z,29.05
2023-01-08T11:25:28.417Z,29.47
2023-01-08T11:28:00.803Z,28.58
2023-01-08T11:30:32.444Z,29.42
2023-01-08T11:33:07.204Z,29.50
2023-01-08T11:35:50.261Z,29.71
2023-01-08T11:38:18.832Z,28.93
2023-01-08T11:40:52.875Z,28.20
2023-01-08T11:43:32.846Z,28.69
2023-01-08T11:46:18.946Z,29.06
2023-01-08T11:49:17.318Z,29.48
2023-01-08T11:52:04.698Z,29.33
2023-01-08T11:54:50.936Z,28.66
2023-01-08T11:57:32.142Z,27.76
2023-01-08T12:00:17.119Z,27.83
2023-01-08T12:02:56.020Z,26.69
2023-01-08T12:05:31.508Z,27.36
2023-01-08T12:08:05.232Z,25.96
2023-01-08T12:10:55.890Z,27.75
2023-01-08T12:13:41.430Z,27.80
2023-01-08T12:16:26.944Z,28.38
2023-01-08T12:19:09.290Z,28.36
2023-01-08T12:21:49.977Z,29.03
2023-01-08T12:24:34.686Z,28.05
2023-01-08T12:27:10.573Z,27.65
2023-01-08T12:29:52.568Z,27.41
2023-01-08T12:32:36.489Z,26.78
2023-01-08T12:35:12.360Z,27.55
2023-01-08T12:37:51.821Z,27.56
2023-01-08T12:40:25.952Z,29.89
2023-01-08T12:43:01.267Z,30.18
2023-01-08T12:45:32.279Z,29.68
2023-01-08T12:48:05.519Z,27.77
2023-01-08T12:50:42.379Z,27.11
2023-01-08T12:53:21.197Z,27.59
2023-01-08T12:55:57.015Z,28.58
2023-01-08T12:58:33.126Z,30.47
2023-01-08T13:01:12.985Z,28.84
2023-01-08T13:03:43.919Z,28.53
2023-01-08T13:06:15.469Z,27.30
2023-01-08T13:08:49.845Z,27.11
2023-01-08T13:11:27.672Z,28.60
2023-01-08T13:14:07.510Z,28.63
2023-01-08T13:16:40.301Z,28.98
2023-01-08T13:19:26.157Z,28.93
2023-01-08T13:21:56.877Z,29.12
2023-01-08T13:24:30.934Z,29.31
2023-01-08T13:27:11.189Z,28.96
2023-01-08T13:29:41.505Z,28.89
2023-01-08T13:32:41.838Z,29.28
2023-01-08T13:35:26.557Z,29.80
2023-01-08T13:38:14.349Z,29.74
2023-01-08T13:41:01.433Z,29.39
2023-01-08T13:43:32.576Z,30.55
2023-01-08T13:46:10.176Z,31.01
2023-01-08T13:48:40.695Z,31.86
2023-01-08T13:51:32.980Z,32.41
2023-01-08T13:54:15.144Z,33.62
2023-01-08T13:56:44.849Z,34.63
2023-01-08T13:59:26.242Z,34.50
2023-01-08T14:01:55.903Z,35.92
2023-01-08T14:04:25.400Z,35.64
2023-01-08T14:06:55.314Z,37.16
2023-01-08T14:09:25.593Z,39.22
2023-01-08T14:11:56.807Z,40.27
2023-01-08T14:14:26.129Z,41.72
2023-01-08T14:16:55.673Z,40.84
2023-01-08T14:19:26.342Z,40.02
2023-01-08T14:21:58.113Z,40.38
2023-01-08T14:24:27.564Z,40.95
2023-01-08T14:27:00.623Z,43.45
2023-01-08T14:29:30.941Z,44.53
2023-01-08T14:32:01.136Z,47.71
2023-01-08T14:34:31.687Z,49.03
2023-01-08T14:37:01.421Z,49.25
2023-01-08T14:39:35.566Z,49.18
2023-01-08T14:42:28.149Z,49.38
2023-01-08T14:44:58.111Z,50.91
2023-01-08T14:47:35.510Z,51.83
2023-01-08T14:50:03.862Z,52.14
2023-01-08T14:52:34.867Z,52.62
2023-01-08T14:55:04.855Z,52.52
2023-01-08T14:57:33.187Z,52.52
2023-01-08T15:00:03.204Z,53.53
2023-01-08T15:02:35.564Z,54.85
2023-01-08T15:05:06.348Z,54.97
2023-01-08T15:07:36.056Z,54.83
2023-01-08T15:10:04.438Z,55.05
2023-01-08T15:12:33.243Z,55.73
2023-01-08T15:15:11.360Z,55.11
2023-01-08T15:17:41.991Z,56.36
2023-01-08T15:20:18.708Z,56.58
2023-01-08T15:22:51.390Z,59.07
2023-01-08T15:25:26.236Z,54.87
2023-01-08T15:27:59.553Z,55.69
2023-01-08T15:30:34.310Z,56.36
2023-01-08T15:33:10.431Z,55.92
2023-01-08T15:35:38.815Z,57.89
2023-01-08T15:38:09.242Z,56.32
2023-01-08T15:40:37.654Z,57.20
2023-01-08T15:43:10.990Z,59.25
2023-01-08T15:45:40.686Z,58.53
2023-01-08T15:48:10.798Z,57.65
2023-01-08T15:50:40.669Z,56.90
2023-01-08T15:53:14.677Z,56.58
2023-01-08T15:55:46.688Z,55.30
2023-01-08T15:58:16.609Z,54.64
2023-01-08T16:00:47.012Z,57.01
2023-01-08T16:03:17.454Z,56.30
2023-01-08T16:05:45.724Z,56.71
2023-01-08T16:08:15.430Z,56.83
2023-01-08T16:10:43.680Z,56.95
2023-01-08T16:13:12.427Z,56.78
2023-01-08T16:15:41.110Z,56.88
2023-01-08T16:18:09.462Z,58.70
2023-01-08T16:20:37.964Z,58.89
2023-01-08T16:23:06.430Z,59.50
2023-01-08T16:25:36.156Z,59.35
2023-01-08T16:28:04.487Z,58.45
2023-01-08T16:30:32.845Z,58.66
2023-01-08T16:33:01.145Z,58.93
2023-01-08T16:35:29.420Z,59.15
2023-01-08T16:37:57.815Z,59.49
2023-01-08T16:40:26.122Z,59.27
2023-01-08T16:43:01.139Z,58.87
2023-01-08T16:45:29.496Z,59.17
2023-01-08T16:47:57.761Z,58.32
2023-01-08T16:50:26.017Z,59.92
2023-01-08T16:52:54.281Z,58.81
2023-01-08T16:55:22.800Z,56.59
2023-01-08T16:57:51.065Z,55.83
2023-01-08T17:00:21.568Z,56.52
2023-01-08T17:02:49.876Z,57.30
2023-01-08T17:05:18.513Z,56.17
2023-01-08T17:07:46.813Z,55.31
2023-01-08T17:10:15.186Z,55.83
2023-01-08T17:12:43.561Z,55.30
2023-01-08T17:15:12.545Z,56.72
2023-01-08T17:17:42.173Z,57.44
2023-01-08T17:20:11.696Z,57.30
2023-01-08T17:22:40.066Z,56.39
2023-01-08T17:25:09.228Z,56.31
2023-01-08T17:27:37.778Z,56.14
2023-01-08T17:30:07.219Z,56.44
2023-01-08T17:32:35.586Z,56.36
2023-01-08T17:35:06.121Z,56.30
2023-01-08T17:37:34.857Z,56.42
2023-01-08T17:40:03.367Z,56.51
2023-01-08T17:42:32.124Z,57.20
2023-01-08T17:45:03.068Z,57.73
2023-01-08T17:47:32.216Z,57.44
2023-01-08T17:50:02.244Z,57.42
2023-01-08T17:52:32.110Z,57.74
2023-01-08T17:55:02.930Z,58.41
2023-01-08T17:57:31.825Z,58.49
2023-01-08T18:00:01.007Z,57.95
2023-01-08T18:02:29.433Z,57.66
2023-01-08T18:04:58.752Z,57.60
2023-01-08T18:07:27.045Z,57.98
2023-01-08T18:09:57.882Z,58.54
2023-01-08T18:12:26.155Z,57.88
2023-01-08T18:14:54.402Z,58.65
2023-01-08T18:17:22.846Z,58.74
2023-01-08T18:19:51.142Z,58.42
2023-01-08T18:22:19.486Z,58.95
2023-01-08T18:24:47.694Z,58.13
2023-01-08T18:27:17.461Z,58.64
2023-01-08T18:29:45.840Z,58.61
2023-01-08T18:32:14.227Z,58.24
2023-01-08T18:34:42.518Z,59.07
2023-01-08T18:37:10.859Z,58.92
2023-01-08T18:39:39.158Z,59.51
2023-01-08T18:42:24.891Z,58.61
2023-01-08T18:44:55.492Z,59.24
2023-01-08T18:47:25.012Z,60.12
2023-01-08T18:49:55.035Z,59.56
2023-01-08T18:52:24.087Z,59.42
2023-01-08T18:54:53.330Z,60.05
2023-01-08T18:57:21.743Z,60.03
2023-01-08T18:59:50.662Z,59.70
2023-01-08T19:02:23.765Z,59.76
2023-01-08T19:04:52.383Z,59.54
2023-01-08T19:07:21.011Z,60.15
2023-01-08T19:09:49.405Z,59.81
2023-01-08T19:12:17.617Z,60.32
2023-01-08T19:14:47.150Z,60.59
2023-01-08T19:17:15.717Z,60.11
2023-01-08T19:19:45.395Z,60.52
2023-01-08T19:22:13.715Z,60.53
2023-01-08T19:24:42.134Z,60.16
2023-01-08T19:27:10.562Z,60.66
2023-01-08T19:29:39.097Z,60.21
2023-01-08T19:32:09.397Z,60.34
2023-01-08T19:34:37.659Z,60.83
2023-01-08T19:37:07.339Z,60.65
2023-01-08T19:39:35.771Z,60.85
2023-01-08T19:42:21.341Z,60.89
2023-01-08T19:44:49.616Z,62.11
2023-01-08T19:47:18.367Z,61.95
2023-01-08T19:49:48.979Z,61.64
2023-01-08T19:52:19.553Z,62.02
2023-01-08T19:54:48.212Z,61.88
2023-01-08T19:57:16.541Z,62.02
2023-01-08T19:59:44.994Z,61.92
2023-01-08T20:02:13.858Z,61.86
2023-01-08T20:04:43.676Z,62.02
2023-01-08T20:07:12.684Z,61.87
2023-01-08T20:09:42.605Z,62.12
2023-01-08T20:12:11.448Z,62.29
2023-01-08T20:14:39.751Z,62.96
2023-01-08T20:17:08.089Z,62.37
2023-01-08T20:19:37.457Z,62.91
2023-01-08T20:22:05.740Z,62.55
2023-01-08T20:24:34.074Z,63.35
2023-01-08T20:27:03.754Z,62.50
2023-01-08T20:29:32.981Z,62.66
2023-01-08T20:32:01.449Z,63.50
2023-01-08T20:34:29.778Z,62.57
2023-01-08T20:36:58.550Z,63.34
2023-01-08T20:39:27.482Z,63.49
2023-01-08T20:42:03.978Z,63.10
2023-01-08T20:44:34.710Z,63.54
2023-01-08T20:47:03.483Z,63.50
2023-01-08T20:49:31.725Z,63.96
2023-01-08T20:52:00.667Z,63.90
2023-01-08T20:54:30.355Z,63.68
2023-01-08T20:56:59.192Z,63.55
2023-01-08T20:59:28.418Z,63.17
2023-01-08T21:01:58.286Z,62.74
2023-01-08T21:04:26.775Z,64.44
2023-01-08T21:06:55.227Z,65.09
2023-01-08T21:09:23.593Z,62.59
2023-01-08T21:11:52.089Z,61.16
2023-01-08T21:14:20.493Z,63.86
2023-01-08T21:16:48.773Z,63.55
2023-01-08T21:19:18.522Z,62.39
2023-01-08T21:21:46.992Z,63.70
2023-01-08T21:24:15.947Z,65.41
2023-01-08T21:26:46.361Z,65.77
2023-01-08T21:29:14.938Z,65.18
2023-01-08T21:31:43.401Z,63.83
2023-01-08T21:34:12.026Z,62.73
2023-01-08T21:36:41.789Z,62.52
2023-01-08T21:39:12.194Z,62.33
2023-01-08T21:41:57.727Z,62.86
2023-01-08T21:44:44.642Z,62.14
2023-01-08T21:47:16.611Z,62.32
2023-01-08T21:49:46.058Z,63.78
2023-01-08T21:52:33.441Z,62.80
2023-01-08T21:55:01.793Z,61.34
2023-01-08T21:57:30.119Z,62.31
2023-01-08T21:59:58.451Z,61.73
2023-01-08T22:02:26.976Z,61.70
2023-01-08T22:04:56.638Z,61.54
2023-01-08T22:07:27.010Z,61.83
2023-01-08T22:09:55.818Z,61.47
2023-01-08T22:12:25.728Z,61.59
2023-01-08T22:14:54.504Z,61.82
2023-01-08T22:17:23.491Z,61.77
2023-01-08T22:19:51.776Z,61.33
2023-01-08T22:22:20.115Z,62.84
2023-01-08T22:24:49.771Z,61.72
2023-01-08T22:27:18.020Z,61.79
2023-01-08T22:29:46.351Z,62.09
2023-01-08T22:32:15.114Z,62.88
2023-01-08T22:34:43.323Z,61.80
2023-01-08T22:37:11.732Z,62.62
2023-01-08T22:39:40.021Z,62.28
2023-01-08T22:42:09.681Z,62.06
2023-01-08T22:44:38.165Z,62.54
2023-01-08T22:47:08.575Z,64.09
2023-01-08T22:49:37.407Z,63.58
2023-01-08T22:52:06.853Z,62.97
2023-01-08T22:54:35.241Z,64.08
2023-01-08T22:57:03.511Z,63.44
2023-01-08T22:59:33.297Z,63.15
2023-01-08T23:02:01.663Z,62.82
2023-01-08T23:04:32.664Z,63.21
2023-01-08T23:07:00.967Z,62.53
2023-01-08T23:09:29.307Z,62.17
2023-01-08T23:11:59.640Z,62.08
2023-01-08T23:14:27.939Z,62.07
2023-01-08T23:16:57.589Z,62.32
2023-01-08T23:19:25.819Z,61.99
2023-01-08T23:21:54.148Z,62.05
2023-01-08T23:24:22.400Z,63.09
2023-01-08T23:26:50.685Z,62.39
2023-01-08T23:29:18.982Z,62.91
2023-01-08T23:31:47.911Z,63.41
2023-01-08T23:34:17.927Z,61.85
2023-01-08T23:36:46.185Z,62.50
2023-01-08T23:39:14.410Z,62.44
2023-01-08T23:41:42.707Z,62.90
2023-01-08T23:44:13.961Z,62.61
2023-01-08T23:46:42.509Z,62.65
2023-01-08T23:49:11.288Z,62.68
2023-01-08T23:51:42.772Z,62.35
2023-01-08T23:54:11.938Z,62.34
2023-01-08T23:56:43.943Z,63.00
2023-01-08T23:59:12.558Z,62.47
